createdAt,value
2023-05-10T00:00:01.963Z,4.7
2023-05-10T00:05:01.283Z,4.4
2023-05-10T00:10:01.327Z,4.2
2023-05-10T00:15:02.799Z,4.0
2023-05-10T00:20:01.554Z,3.7
2023-05-10T00:25:01.368Z,3.5
2023-05-10T00:30:01.914Z,3.5
2023-05-10T00:35:01.286Z,3.6
2023-05-10T00:40:01.474Z,3.6
2023-05-10T00:45:01.908Z,3.4
2023-05-10T00:50:01.287Z,3.6
2023-05-10T00:55:01.340Z,3.6
2023-05-10T01:00:02.910Z,3.8
2023-05-10T01:05:01.428Z,4.0
2023-05-10T01:10:01.390Z,4.4
2023-05-10T01:15:02.090Z,4.2
2023-05-10T01:20:01.482Z,4.4
2023-05-10T01:25:01.345Z,4.2
2023-05-10T01:30:32.868Z,4.4
2023-05-10T01:36:01.451Z,3.8
2023-05-10T01:41:01.274Z,4.2
2023-05-10T01:46:01.267Z,4.0
2023-05-10T01:51:01.310Z,4.0
2023-05-10T01:56:01.577Z,4.0
2023-05-10T02:01:01.489Z,4.4
2023-05-10T02:06:01.408Z,4.2
2023-05-10T02:11:01.271Z,4.2
2023-05-10T02:16:01.428Z,4.0
2023-05-10T02:21:01.263Z,3.8
2023-05-10T02:26:01.318Z,3.8
2023-05-10T02:31:01.588Z,3.8
2023-05-10T02:36:01.443Z,4.0
2023-05-10T02:42:01.337Z,4.4
2023-05-10T02:52:01.463Z,4.2
2023-05-10T02:57:01.328Z,4.2
2023-05-10T03:02:01.367Z,4.0
2023-05-10T03:07:01.696Z,3.7
2023-05-10T03:12:01.490Z,3.7
2023-05-10T03:17:01.289Z,4.0
2023-05-10T03:22:01.809Z,3.9
2023-05-10T03:27:02.354Z,3.9
2023-05-10T03:32:01.512Z,3.8
2023-05-10T03:37:01.300Z,3.8
2023-05-10T03:48:01.613Z,4.0
2023-05-10T03:53:01.341Z,3.8
2023-05-10T03:58:01.262Z,4.0
2023-05-10T04:08:03.074Z,3.9
2023-05-10T04:13:01.419Z,3.9
2023-05-10T04:18:01.456Z,3.9
2023-05-10T04:23:01.324Z,3.9
2023-05-10T04:28:01.984Z,4.0
2023-05-10T04:33:02.051Z,4.0
2023-05-10T04:38:01.374Z,4.2
2023-05-10T04:43:01.281Z,4.4
2023-05-10T04:48:02.254Z,4.4
2023-05-10T04:53:01.323Z,4.2
2023-05-10T04:59:01.396Z,3.9
2023-05-10T05:04:02.432Z,3.6
2023-05-10T05:09:01.753Z,3.2
2023-05-10T05:14:02.398Z,3.2
2023-05-10T05:19:01.819Z,2.8
2023-05-10T05:24:01.904Z,2.8
2023-05-10T05:29:01.670Z,2.9
2023-05-10T05:34:01.671Z,3.2
2023-05-10T05:39:01.341Z,3.0
2023-05-10T05:44:01.872Z,3.2
2023-05-10T05:49:01.345Z,3.4
2023-05-10T05:54:01.707Z,3.6
2023-05-10T05:59:01.706Z,3.6
2023-05-10T06:04:03.023Z,3.8
2023-05-10T06:09:01.627Z,3.8
2023-05-10T06:14:01.342Z,3.5
2023-05-10T06:19:01.805Z,3.1
2023-05-10T06:24:03.740Z,3.1
2023-05-10T06:29:01.302Z,2.8
2023-05-10T06:34:01.355Z,2.8
2023-05-10T06:39:01.337Z,2.8
2023-05-10T06:44:01.815Z,2.9
2023-05-10T06:49:01.736Z,3.0
2023-05-10T06:54:01.274Z,3.3
2023-05-10T06:59:02.017Z,3.6
2023-05-10T07:09:01.497Z,3.6
2023-05-10T07:19:01.369Z,3.8
2023-05-10T07:24:01.737Z,3.7
2023-05-10T07:29:01.869Z,3.9
2023-05-10T07:34:01.380Z,3.8
2023-05-10T07:39:01.320Z,3.6
2023-05-10T07:44:01.457Z,3.3
2023-05-10T07:49:01.591Z,3.4
2023-05-10T07:54:01.322Z,3.2
2023-05-10T07:59:02.360Z,3.6
2023-05-10T08:04:01.853Z,3.9
2023-05-10T08:09:01.519Z,4.0
2023-05-10T08:14:01.315Z,3.9
2023-05-10T08:19:02.157Z,4.0
2023-05-10T08:24:01.790Z,3.9
2023-05-10T08:29:02.309Z,3.7
2023-05-10T08:44:01.284Z,3.7
2023-05-10T08:49:01.412Z,3.9
2023-05-10T08:54:02.881Z,4.1
2023-05-10T08:59:01.788Z,4.4
2023-05-10T09:04:01.504Z,4.6
2023-05-10T09:09:01.902Z,5.0
2023-05-10T09:14:01.375Z,4.4
2023-05-10T09:19:01.544Z,4.2
2023-05-10T09:24:01.264Z,4.2
2023-05-10T09:34:01.436Z,3.8
2023-05-10T09:39:01.282Z,4.3
2023-05-10T09:44:01.279Z,4.6
2023-05-10T09:49:01.356Z,4.2
2023-05-10T09:54:10.100Z,4.0
2023-05-10T10:09:01.350Z,4.0
2023-05-10T10:14:01.486Z,4.2
2023-05-10T10:19:01.535Z,4.4
2023-05-10T10:24:01.279Z,4.6
2023-05-10T10:29:14.209Z,4.9
2023-05-10T10:39:01.365Z,4.9
2023-05-10T10:49:09.746Z,4.9
2023-05-10T10:54:09.181Z,5.0
2023-05-10T10:59:01.261Z,5.3
2023-05-10T11:04:17.050Z,5.8
2023-05-10T11:09:10.298Z,6.0
2023-05-10T11:14:03.629Z,6.0
2023-05-10T11:19:01.503Z,5.7
2023-05-10T11:24:01.475Z,5.4
2023-05-10T11:29:01.269Z,5.5
2023-05-10T11:34:01.277Z,5.8
2023-05-10T11:39:01.336Z,5.7
2023-05-10T11:44:01.440Z,5.8
2023-05-10T11:49:01.257Z,6.6
2023-05-10T11:54:01.272Z,5.9
2023-05-10T11:59:01.781Z,5.7
2023-05-10T12:04:03.775Z,6.1
2023-05-10T12:14:01.339Z,6.0
2023-05-10T12:24:01.422Z,6.4
2023-05-10T12:29:01.322Z,6.0
2023-05-10T12:34:01.268Z,6.0
2023-05-10T12:39:01.326Z,6.0
2023-05-10T12:44:01.427Z,6.4
2023-05-10T12:49:10.198Z,6.6
2023-05-10T12:54:01.303Z,6.8
2023-05-10T13:05:01.537Z,6.7
2023-05-10T13:10:01.264Z,6.4
2023-05-10T13:15:02.424Z,6.2
2023-05-10T13:20:01.317Z,5.7
2023-05-10T13:25:01.445Z,5.5
2023-05-10T13:30:02.805Z,5.0
2023-05-10T13:35:01.277Z,4.6
2023-05-10T13:40:01.272Z,4.2
2023-05-10T13:45:01.833Z,4.0
2023-05-10T13:50:01.869Z,3.9
2023-05-10T13:55:01.375Z,3.8
2023-05-10T14:00:02.117Z,3.8
2023-05-10T14:05:01.440Z,4.0
2023-05-10T14:10:01.273Z,4.2
2023-05-10T14:15:01.797Z,3.9
2023-05-10T14:20:01.336Z,4.1
2023-05-10T14:25:01.473Z,4.1
2023-05-10T14:30:02.075Z,4.0
2023-05-10T14:35:01.420Z,3.8
2023-05-10T14:40:01.382Z,4.2
2023-05-10T14:45:01.958Z,4.3
2023-05-10T14:51:01.270Z,4.5
2023-05-10T14:56:01.353Z,4.4
2023-05-10T15:01:02.673Z,4.2
2023-05-10T15:06:01.322Z,4.3
2023-05-10T15:11:01.339Z,4.2
2023-05-10T15:16:01.673Z,3.7
2023-05-10T15:21:01.481Z,3.3
2023-05-10T15:31:01.431Z,3.1
2023-05-10T15:41:01.437Z,3.3
2023-05-10T15:46:01.328Z,3.5
2023-05-10T15:51:01.430Z,3.8
2023-05-10T15:56:01.641Z,3.4
2023-05-10T16:01:02.928Z,3.0
2023-05-10T16:06:01.324Z,2.8
2023-05-10T16:11:01.331Z,2.6
2023-05-10T16:16:01.532Z,2.2
2023-05-10T16:21:01.948Z,2.2
2023-05-10T16:26:01.327Z,2.5
2023-05-10T16:36:01.932Z,2.6
2023-05-10T16:41:01.980Z,2.5
2023-05-10T16:56:02.145Z,2.0
2023-05-10T17:01:01.419Z,1.7
2023-05-10T17:06:01.270Z,1.5
2023-05-10T17:11:02.276Z,0.9
2023-05-10T17:16:01.525Z,0.9
2023-05-10T17:21:01.463Z,1.5
2023-05-10T17:26:03.277Z,2.1
2023-05-10T17:31:01.712Z,2.7
2023-05-10T17:36:01.266Z,2.9
2023-05-10T17:41:01.551Z,2.9
2023-05-10T17:46:01.504Z,2.5
2023-05-10T17:51:01.279Z,2.1
2023-05-10T17:56:01.711Z,1.8
2023-05-10T18:01:01.503Z,1.8
2023-05-10T18:07:02.071Z,1.8
2023-05-10T18:12:01.253Z,1.7
2023-05-10T18:22:01.732Z,1.9
2023-05-10T18:27:01.520Z,2.4
2023-05-10T18:32:01.363Z,2.6
2023-05-10T18:37:01.316Z,3.0
2023-05-10T18:47:01.480Z,2.8
2023-05-10T18:52:01.466Z,2.6
2023-05-10T19:02:01.682Z,2.8
2023-05-10T19:07:01.456Z,3.0
2023-05-10T19:12:02.114Z,3.1
2023-05-10T19:17:01.450Z,3.2
2023-05-10T19:22:04.225Z,3.2
2023-05-10T19:27:02.417Z,3.0
2023-05-10T19:32:01.621Z,2.8
2023-05-10T19:37:01.345Z,2.9
2023-05-10T19:42:01.605Z,3.0
2023-05-10T19:47:01.467Z,3.2
2023-05-10T19:52:01.322Z,3.3
2023-05-10T19:57:01.257Z,3.6
2023-05-10T20:02:01.928Z,3.2
2023-05-10T20:07:01.483Z,2.9
2023-05-10T20:12:01.273Z,2.4
2023-05-10T20:17:01.569Z,2.3
2023-05-10T20:27:01.907Z,2.5
2023-05-10T20:32:01.861Z,2.9
2023-05-10T20:37:01.333Z,3.4
2023-05-10T20:42:01.252Z,3.4
2023-05-10T20:47:01.541Z,4.0
2023-05-10T20:52:02.702Z,4.0
2023-05-10T20:57:01.267Z,3.9
2023-05-10T21:02:01.799Z,3.9
2023-05-10T21:07:01.419Z,4.3
2023-05-10T21:12:01.274Z,4.5
2023-05-10T21:17:01.746Z,4.9
2023-05-10T21:22:01.269Z,5.4
2023-05-10T21:27:01.424Z,6.0
2023-05-10T21:32:01.560Z,5.9
2023-05-10T21:37:01.364Z,5.7
2023-05-10T21:42:01.271Z,5.1
2023-05-10T21:47:01.426Z,4.8
2023-05-10T21:52:01.788Z,4.2
2023-05-10T21:57:01.262Z,4.0
2023-05-10T22:02:01.443Z,3.6
2023-05-10T22:07:01.373Z,4.2
2023-05-10T22:12:01.921Z,4.0
2023-05-10T22:17:01.422Z,4.0
2023-05-10T22:22:02.219Z,4.0
2023-05-10T22:27:01.448Z,4.1
2023-05-10T22:37:01.263Z,4.5
2023-05-10T22:42:01.349Z,4.9
2023-05-10T22:47:01.424Z,5.3
2023-05-10T22:52:01.882Z,5.2
2023-05-10T22:57:01.267Z,5.9
2023-05-10T23:02:01.483Z,5.9
2023-05-10T23:07:01.852Z,5.4
2023-05-10T23:12:01.280Z,5.0
2023-05-10T23:17:01.297Z,5.0
2023-05-10T23:22:01.642Z,4.7
2023-05-10T23:27:01.502Z,5.2
2023-05-10T23:32:01.570Z,5.8
2023-05-10T23:37:01.851Z,6.1
2023-05-10T23:42:01.469Z,6.9
2023-05-10T23:47:01.465Z,7.0
2023-05-10T23:57:01.288Z,6.6
